sensor_id;sensor_type;location;lat;lon;timestamp;pressure;altitude;pressure_sealevel;temperature;humidity
22688;BME280;11511;51.514;7.080;2023-08-24T01:08:13;101331.63;;;15.38;100.00
22688;BME280;11511;51.514;7.080;2023-08-24T01:10:48;101328.31;;;15.33;100.00
22688;BME280;11511;51.514;7.080;2023-08-24T01:13:27;101332.84;;;15.31;100.00
22688;BME280;11511;51.514;7.080;2023-08-24T01:16:04;101338.22;;;15.30;100.00
22688;BME280;11511;51.514;7.080;2023-08-24T01:18:34;101334.00;;;15.44;100.00
22688;BME280;11511;51.514;7.080;2023-08-24T01:21:01;101322.53;;;15.44;100.00
22688;BME280;11511;51.514;7.080;2023-08-24T01:23:51;101318.72;;;15.70;100.00
22688;BME280;11511;51.514;7.080;2023-08-24T01:26:20;101321.28;;;15.90;100.00
22688;BME280;11511;51.514;7.080;2023-08-24T01:28:46;101316.13;;;16.06;100.00
22688;BME280;11511;51.514;7.080;2023-08-24T01:31:16;101315.66;;;16.15;100.00
22688;BME280;11511;51.514;7.080;2023-08-24T01:33:42;101316.59;;;16.14;100.00
22688;BME280;11511;51.514;7.080;2023-08-24T01:36:14;101308.41;;;16.18;100.00
22688;BME280;11511;51.514;7.080;2023-08-24T01:38:40;101307.16;;;16.25;100.00
22688;BME280;11511;51.514;7.080;2023-08-24T01:41:16;101304.78;;;16.38;100.00
22688;BME280;11511;51.514;7.080;2023-08-24T01:43:46;101299.47;;;16.38;100.00
22688;BME280;11511;51.514;7.080;2023-08-24T01:46:15;101292.72;;;16.31;100.00
22688;BME280;11511;51.514;7.080;2023-08-24T01:48:42;101296.81;;;16.19;100.00
22688;BME280;11511;51.514;7.080;2023-08-24T01:51:09;101303.47;;;16.11;100.00
22688;BME280;11511;51.514;7.080;2023-08-24T01:53:35;101307.28;;;16.05;100.00
22688;BME280;11511;51.514;7.080;2023-08-24T01:56:08;101302.25;;;15.99;100.00
22688;BME280;11511;51.514;7.080;2023-08-24T01:58:33;101298.94;;;15.94;100.00
22688;BME280;11511;51.514;7.080;2023-08-24T02:00:59;101298.22;;;15.90;100.00
22688;BME280;11511;51.514;7.080;2023-08-24T02:03:24;101291.25;;;15.88;100.00
22688;BME280;11511;51.514;7.080;2023-08-24T02:05:49;101281.75;;;15.84;100.00
22688;BME280;11511;51.514;7.080;2023-08-24T02:11:17;101288.22;;;15.78;100.00
22688;BME280;11511;51.514;7.080;2023-08-24T02:13:43;101292.88;;;15.73;100.00
22688;BME280;11511;51.514;7.080;2023-08-24T02:16:08;101298.31;;;15.70;100.00
22688;BME280;11511;51.514;7.080;2023-08-24T02:18:34;101294.94;;;15.67;100.00
22688;BME280;11511;51.514;7.080;2023-08-24T02:20:59;101295.94;;;15.64;100.00
22688;BME280;11511;51.514;7.080;2023-08-24T02:23:25;101294.47;;;15.59;100.00
22688;BME280;11511;51.514;7.080;2023-08-24T02:25:50;101296.44;;;15.53;100.00
22688;BME280;11511;51.514;7.080;2023-08-24T02:28:15;101294.72;;;15.52;100.00
22688;BME280;11511;51.514;7.080;2023-08-24T02:30:41;101292.19;;;15.49;100.00
22688;BME280;11511;51.514;7.080;2023-08-24T02:33:06;101294.06;;;15.47;100.00
22688;BME280;11511;51.514;7.080;2023-08-24T02:35:32;101293.31;;;15.44;100.00
22688;BME280;11511;51.514;7.080;2023-08-24T02:37:57;101276.75;;;15.39;100.00
22688;BME280;11511;51.514;7.080;2023-08-24T02:40:23;101267.97;;;15.37;100.00
22688;BME280;11511;51.514;7.080;2023-08-24T02:42:48;101280.53;;;15.33;100.00
22688;BME280;11511;51.514;7.080;2023-08-24T02:45:14;101287.72;;;15.31;100.00
22688;BME280;11511;51.514;7.080;2023-08-24T02:47:39;101283.50;;;15.27;100.00
22688;BME280;11511;51.514;7.080;2023-08-24T02:50:05;101289.88;;;15.23;100.00
22688;BME280;11511;51.514;7.080;2023-08-24T02:52:31;101284.63;;;15.21;100.00
22688;BME280;11511;51.514;7.080;2023-08-24T02:54:57;101282.81;;;15.22;100.00
22688;BME280;11511;51.514;7.080;2023-08-24T02:57:23;101283.63;;;15.24;100.00
22688;BME280;11511;51.514;7.080;2023-08-24T02:59:48;101285.22;;;15.28;100.00
22688;BME280;11511;51.514;7.080;2023-08-24T03:02:13;101284.13;;;15.32;100.00
22688;BME280;11511;51.514;7.080;2023-08-24T03:04:39;101282.19;;;15.36;100.00
22688;BME280;11511;51.514;7.080;2023-08-24T03:07:04;101291.00;;;15.36;100.00
22688;BME280;11511;51.514;7.080;2023-08-24T03:09:34;101290.94;;;15.38;100.00
22688;BME280;11511;51.514;7.080;2023-08-24T03:11:59;101309.47;;;15.39;100.00
22688;BME280;11511;51.514;7.080;2023-08-24T03:14:24;101306.81;;;15.39;100.00
22688;BME280;11511;51.514;7.080;2023-08-24T03:16:50;58335.94;;;-143.71;100.00
22688;BME280;11511;51.514;7.080;2023-08-24T03:19:15;58335.94;;;-143.71;100.00
22688;BME280;11511;51.514;7.080;2023-08-24T03:21:43;101278.16;;;15.66;100.00
22688;BME280;11511;51.514;7.080;2023-08-24T03:24:09;101278.91;;;15.49;100.00
22688;BME280;11511;51.514;7.080;2023-08-24T03:26:34;101282.44;;;15.50;100.00
22688;BME280;11511;51.514;7.080;2023-08-24T03:28:59;101283.22;;;15.52;100.00
22688;BME280;11511;51.514;7.080;2023-08-24T03:31:25;101285.72;;;15.56;100.00
22688;BME280;11511;51.514;7.080;2023-08-24T03:33:51;101296.25;;;15.58;100.00
22688;BME280;11511;51.514;7.080;2023-08-24T03:36:16;101291.63;;;15.62;100.00
22688;BME280;11511;51.514;7.080;2023-08-24T03:38:42;101295.88;;;15.66;100.00
22688;BME280;11511;51.514;7.080;2023-08-24T03:41:07;101294.00;;;15.68;100.00
22688;BME280;11511;51.514;7.080;2023-08-24T03:43:33;101304.34;;;15.74;100.00
22688;BME280;11511;51.514;7.080;2023-08-24T03:46:00;101302.50;;;15.76;100.00
22688;BME280;11511;51.514;7.080;2023-08-24T03:48:26;101309.38;;;15.80;100.00
22688;BME280;11511;51.514;7.080;2023-08-24T03:50:55;101303.06;;;15.82;100.00
22688;BME280;11511;51.514;7.080;2023-08-24T03:53:21;101309.09;;;15.86;100.00
22688;BME280;11511;51.514;7.080;2023-08-24T03:55:48;58335.94;;;-143.71;100.00
22688;BME280;11511;51.514;7.080;2023-08-24T03:58:14;58335.94;;;-143.71;100.00
22688;BME280;11511;51.514;7.080;2023-08-24T04:00:39;101313.84;;;16.15;100.00
22688;BME280;11511;51.514;7.080;2023-08-24T04:03:05;101312.78;;;16.19;100.00
22688;BME280;11511;51.514;7.080;2023-08-24T04:05:31;101303.84;;;16.03;100.00
22688;BME280;11511;51.514;7.080;2023-08-24T04:07:56;101309.28;;;16.00;100.00
22688;BME280;11511;51.514;7.080;2023-08-24T04:10:21;101304.78;;;16.02;100.00
22688;BME280;11511;51.514;7.080;2023-08-24T04:12:47;101291.34;;;16.05;100.00
22688;BME280;11511;51.514;7.080;2023-08-24T04:15:12;101275.31;;;16.07;100.00
22688;BME280;11511;51.514;7.080;2023-08-24T04:17:37;101254.72;;;16.12;100.00
22688;BME280;11511;51.514;7.080;2023-08-24T04:20:03;101254.53;;;16.15;100.00
22688;BME280;11511;51.514;7.080;2023-08-24T04:22:31;101249.13;;;16.16;100.00
22688;BME280;11511;51.514;7.080;2023-08-24T04:24:57;101243.81;;;16.16;100.00
22688;BME280;11511;51.514;7.080;2023-08-24T04:27:22;101241.88;;;16.20;100.00
22688;BME280;11511;51.514;7.080;2023-08-24T04:29:48;101245.16;;;16.25;100.00
22688;BME280;11511;51.514;7.080;2023-08-24T04:32:14;101249.47;;;16.28;100.00
22688;BME280;11511;51.514;7.080;2023-08-24T04:34:39;101258.31;;;16.28;100.00
22688;BME280;11511;51.514;7.080;2023-08-24T04:37:05;101260.09;;;16.28;100.00
22688;BME280;11511;51.514;7.080;2023-08-24T04:39:31;101250.56;;;16.23;100.00
22688;BME280;11511;51.514;7.080;2023-08-24T04:41:57;101247.81;;;16.25;100.00
22688;BME280;11511;51.514;7.080;2023-08-24T04:44:23;101244.38;;;16.23;100.00
22688;BME280;11511;51.514;7.080;2023-08-24T04:46:49;101251.50;;;16.22;100.00
22688;BME280;11511;51.514;7.080;2023-08-24T04:49:15;101247.03;;;16.23;100.00
22688;BME280;11511;51.514;7.080;2023-08-24T04:51:40;101248.75;;;16.24;100.00
22688;BME280;11511;51.514;7.080;2023-08-24T04:54:06;101234.38;;;16.28;100.00
22688;BME280;11511;51.514;7.080;2023-08-24T04:56:31;101219.06;;;16.33;100.00
22688;BME280;11511;51.514;7.080;2023-08-24T04:58:57;101212.75;;;16.36;100.00
22688;BME280;11511;51.514;7.080;2023-08-24T05:01:23;101189.44;;;16.41;100.00
22688;BME280;11511;51.514;7.080;2023-08-24T05:03:52;58335.94;;;-143.71;100.00
22688;BME280;11511;51.514;7.080;2023-08-24T05:06:19;101179.34;;;16.65;100.00
22688;BME280;11511;51.514;7.080;2023-08-24T05:08:44;101172.25;;;16.65;100.00
22688;BME280;11511;51.514;7.080;2023-08-24T05:11:13;101162.53;;;16.64;100.00
22688;BME280;11511;51.514;7.080;2023-08-24T05:13:42;101138.59;;;16.64;100.00
22688;BME280;11511;51.514;7.080;2023-08-24T05:16:09;101129.09;;;16.58;100.00
22688;BME280;11511;51.514;7.080;2023-08-24T05:18:34;101129.25;;;16.55;100.00
22688;BME280;11511;51.514;7.080;2023-08-24T05:21:03;101131.22;;;16.52;100.00
22688;BME280;11511;51.514;7.080;2023-08-24T05:23:32;101133.09;;;16.50;100.00
22688;BME280;11511;51.514;7.080;2023-08-24T05:25:59;101132.25;;;16.49;100.00
22688;BME280;11511;51.514;7.080;2023-08-24T05:28:25;101131.16;;;16.53;100.00
22688;BME280;11511;51.514;7.080;2023-08-24T05:30:51;101119.50;;;16.56;100.00
22688;BME280;11511;51.514;7.080;2023-08-24T05:33:17;101103.44;;;16.57;100.00
22688;BME280;11511;51.514;7.080;2023-08-24T05:35:43;101107.75;;;16.60;100.00
22688;BME280;11511;51.514;7.080;2023-08-24T05:38:08;101105.88;;;16.62;100.00
22688;BME280;11511;51.514;7.080;2023-08-24T05:40:34;101112.06;;;16.63;100.00
22688;BME280;11511;51.514;7.080;2023-08-24T05:43:00;101105.75;;;16.65;100.00
22688;BME280;11511;51.514;7.080;2023-08-24T05:45:25;101095.69;;;16.70;100.00
22688;BME280;11511;51.514;7.080;2023-08-24T05:47:50;101099.03;;;16.74;100.00
22688;BME280;11511;51.514;7.080;2023-08-24T05:50:16;101114.69;;;16.80;100.00
22688;BME280;11511;51.514;7.080;2023-08-24T05:52:41;101116.06;;;16.87;100.00
22688;BME280;11511;51.514;7.080;2023-08-24T05:55:07;101126.19;;;16.96;100.00
22688;BME280;11511;51.514;7.080;2023-08-24T05:57:32;101132.03;;;17.03;100.00
22688;BME280;11511;51.514;7.080;2023-08-24T05:59:58;101134.44;;;17.07;100.00
22688;BME280;11511;51.514;7.080;2023-08-24T06:02:23;101138.59;;;17.13;100.00
22688;BME280;11511;51.514;7.080;2023-08-24T06:04:49;101143.75;;;17.16;100.00
22688;BME280;11511;51.514;7.080;2023-08-24T06:07:16;101138.16;;;17.20;100.00
22688;BME280;11511;51.514;7.080;2023-08-24T06:09:42;101139.69;;;17.24;100.00
22688;BME280;11511;51.514;7.080;2023-08-24T06:12:09;101135.66;;;17.33;100.00
22688;BME280;11511;51.514;7.080;2023-08-24T06:14:34;101129.91;;;17.41;100.00
22688;BME280;11511;51.514;7.080;2023-08-24T06:16:59;101131.09;;;17.51;100.00
22688;BME280;11511;51.514;7.080;2023-08-24T06:19:25;101118.66;;;17.67;100.00
22688;BME280;11511;51.514;7.080;2023-08-24T06:21:50;101116.31;;;17.77;100.00
22688;BME280;11511;51.514;7.080;2023-08-24T06:24:16;101099.56;;;17.75;100.00
22688;BME280;11511;51.514;7.080;2023-08-24T06:26:41;101094.34;;;17.87;100.00
22688;BME280;11511;51.514;7.080;2023-08-24T06:29:06;101089.44;;;17.96;100.00
22688;BME280;11511;51.514;7.080;2023-08-24T06:31:32;101090.72;;;18.04;100.00
22688;BME280;11511;51.514;7.080;2023-08-24T06:33:58;101079.88;;;18.21;100.00
22688;BME280;11511;51.514;7.080;2023-08-24T06:36:23;101086.25;;;18.33;100.00
22688;BME280;11511;51.514;7.080;2023-08-24T06:38:49;101083.31;;;18.52;100.00
22688;BME280;11511;51.514;7.080;2023-08-24T06:41:14;101076.28;;;18.65;100.00
22688;BME280;11511;51.514;7.080;2023-08-24T06:43:40;101075.72;;;18.74;100.00
22688;BME280;11511;51.514;7.080;2023-08-24T06:46:05;101071.09;;;18.90;100.00
22688;BME280;11511;51.514;7.080;2023-08-24T06:48:35;101062.16;;;18.91;100.00
22688;BME280;11511;51.514;7.080;2023-08-24T06:51:02;101063.28;;;18.87;100.00
22688;BME280;11511;51.514;7.080;2023-08-24T06:53:28;101061.72;;;18.85;100.00
22688;BME280;11511;51.514;7.080;2023-08-24T06:55:54;101055.75;;;18.94;100.00
22688;BME280;11511;51.514;7.080;2023-08-24T06:58:20;101060.91;;;18.97;100.00
22688;BME280;11511;51.514;7.080;2023-08-24T07:00:46;101061.84;;;18.96;100.00
22688;BME280;11511;51.514;7.080;2023-08-24T07:03:11;101060.97;;;19.10;100.00
22688;BME280;11511;51.514;7.080;2023-08-24T07:05:36;101055.88;;;19.19;100.00
22688;BME280;11511;51.514;7.080;2023-08-24T07:08:02;101047.94;;;19.32;100.00
22688;BME280;11511;51.514;7.080;2023-08-24T07:10:28;101041.47;;;19.49;100.00
22688;BME280;11511;51.514;7.080;2023-08-24T07:12:55;101036.28;;;19.60;100.00
22688;BME280;11511;51.514;7.080;2023-08-24T07:15:20;101030.84;;;19.74;100.00
22688;BME280;11511;51.514;7.080;2023-08-24T07:17:45;101025.31;;;19.77;100.00
22688;BME280;11511;51.514;7.080;2023-08-24T07:20:11;101022.47;;;19.93;100.00
22688;BME280;11511;51.514;7.080;2023-08-24T07:22:39;101027.59;;;20.09;100.00
22688;BME280;11511;51.514;7.080;2023-08-24T07:25:06;101023.97;;;20.22;100.00
22688;BME280;11511;51.514;7.080;2023-08-24T07:27:35;101033.50;;;20.39;100.00
22688;BME280;11511;51.514;7.080;2023-08-24T07:30:01;101020.53;;;20.46;100.00
22688;BME280;11511;51.514;7.080;2023-08-24T07:32:31;101026.72;;;20.59;100.00
22688;BME280;11511;51.514;7.080;2023-08-24T07:34:56;101026.00;;;20.81;100.00
22688;BME280;11511;51.514;7.080;2023-08-24T07:37:22;101015.56;;;21.02;100.00
22688;BME280;11511;51.514;7.080;2023-08-24T07:39:47;101007.44;;;21.03;100.00
22688;BME280;11511;51.514;7.080;2023-08-24T07:42:13;101002.56;;;21.21;100.00
22688;BME280;11511;51.514;7.080;2023-08-24T07:44:38;100990.31;;;21.30;100.00
22688;BME280;11511;51.514;7.080;2023-08-24T07:47:03;100992.38;;;21.37;100.00
22688;BME280;11511;51.514;7.080;2023-08-24T07:49:29;100993.81;;;21.54;100.00
22688;BME280;11511;51.514;7.080;2023-08-24T07:51:54;100990.94;;;21.79;100.00
22688;BME280;11511;51.514;7.080;2023-08-24T07:54:20;100981.88;;;22.04;100.00
22688;BME280;11511;51.514;7.080;2023-08-24T07:56:46;100985.53;;;22.37;100.00
22688;BME280;11511;51.514;7.080;2023-08-24T07:59:11;100979.06;;;22.39;100.00
22688;BME280;11511;51.514;7.080;2023-08-24T08:01:37;100975.38;;;22.62;100.00
22688;BME280;11511;51.514;7.080;2023-08-24T08:04:02;100984.06;;;22.66;100.00
22688;BME280;11511;51.514;7.080;2023-08-24T08:06:27;100989.78;;;22.84;100.00
22688;BME280;11511;51.514;7.080;2023-08-24T08:08:53;100988.44;;;23.21;100.00
22688;BME280;11511;51.514;7.080;2023-08-24T08:11:18;100988.69;;;23.50;100.00
22688;BME280;11511;51.514;7.080;2023-08-24T08:13:44;100983.25;;;24.03;100.00
22688;BME280;11511;51.514;7.080;2023-08-24T08:16:09;100995.38;;;24.49;100.00
22688;BME280;11511;51.514;7.080;2023-08-24T08:18:36;100986.22;;;25.11;100.00
22688;BME280;11511;51.514;7.080;2023-08-24T08:21:08;100985.94;;;25.33;100.00
22688;BME280;11511;51.514;7.080;2023-08-24T08:23:46;100994.28;;;25.88;100.00
22688;BME280;11511;51.514;7.080;2023-08-24T08:26:12;100984.41;;;27.25;100.00
22688;BME280;11511;51.514;7.080;2023-08-24T08:28:39;100989.97;;;29.62;100.00
22688;BME280;11511;51.514;7.080;2023-08-24T08:31:04;100983.72;;;30.41;100.00
22688;BME280;11511;51.514;7.080;2023-08-24T08:33:31;100980.06;;;31.73;90.28
22688;BME280;11511;51.514;7.080;2023-08-24T08:35:57;100969.41;;;33.17;77.42
22688;BME280;11511;51.514;7.080;2023-08-24T08:38:22;100971.28;;;34.08;70.29
22688;BME280;11511;51.514;7.080;2023-08-24T08:40:51;100962.31;;;34.55;63.99
22688;BME280;11511;51.514;7.080;2023-08-24T08:43:19;100965.28;;;34.26;60.94
22688;BME280;11511;51.514;7.080;2023-08-24T08:45:46;100977.03;;;34.20;62.37
22688;BME280;11511;51.514;7.080;2023-08-24T08:48:13;100975.13;;;35.09;62.45
22688;BME280;11511;51.514;7.080;2023-08-24T08:50:38;100977.31;;;36.00;57.03
22688;BME280;11511;51.514;7.080;2023-08-24T08:53:03;100974.53;;;36.33;54.34
22688;BME280;11511;51.514;7.080;2023-08-24T08:55:30;100977.97;;;37.11;51.41
22688;BME280;11511;51.514;7.080;2023-08-24T08:57:56;100970.53;;;37.99;49.23
22688;BME280;11511;51.514;7.080;2023-08-24T09:00:26;100965.94;;;37.93;46.65
22688;BME280;11511;51.514;7.080;2023-08-24T09:02:53;100957.25;;;38.14;46.58
22688;BME280;11511;51.514;7.080;2023-08-24T09:05:19;100951.06;;;38.55;45.91
22688;BME280;11511;51.514;7.080;2023-08-24T09:07:48;100956.78;;;38.72;42.35
22688;BME280;11511;51.514;7.080;2023-08-24T09:10:14;100941.63;;;37.72;43.97
22688;BME280;11511;51.514;7.080;2023-08-24T09:12:39;100939.13;;;38.62;42.86
22688;BME280;11511;51.514;7.080;2023-08-24T09:15:08;100941.19;;;38.96;41.42
22688;BME280;11511;51.514;7.080;2023-08-24T09:17:33;100932.84;;;39.56;40.26
22688;BME280;11511;51.514;7.080;2023-08-24T09:20:01;100930.09;;;39.03;38.96
22688;BME280;11511;51.514;7.080;2023-08-24T09:22:36;100928.72;;;38.64;39.66
22688;BME280;11511;51.514;7.080;2023-08-24T09:25:03;100913.56;;;38.73;40.13
22688;BME280;11511;51.514;7.080;2023-08-24T09:27:30;100908.66;;;39.93;39.44
22688;BME280;11511;51.514;7.080;2023-08-24T09:29:56;100901.75;;;38.54;38.53
22688;BME280;11511;51.514;7.080;2023-08-24T09:32:28;100897.44;;;39.30;39.42
22688;BME280;11511;51.514;7.080;2023-08-24T09:34:54;100881.66;;;39.48;37.63
22688;BME280;11511;51.514;7.080;2023-08-24T09:37:19;100874.50;;;38.64;37.77
22688;BME280;11511;51.514;7.080;2023-08-24T09:39:45;100866.44;;;38.92;38.91
22688;BME280;11511;51.514;7.080;2023-08-24T09:42:24;100856.25;;;38.81;38.87
22688;BME280;11511;51.514;7.080;2023-08-24T09:45:03;100844.44;;;37.59;41.37
22688;BME280;11511;51.514;7.080;2023-08-24T09:47:36;100844.81;;;37.63;44.50
22688;BME280;11511;51.514;7.080;2023-08-24T09:50:08;100840.28;;;37.93;41.60
22688;BME280;11511;51.514;7.080;2023-08-24T09:52:42;100829.44;;;37.37;43.13
22688;BME280;11511;51.514;7.080;2023-08-24T09:55:19;100841.47;;;37.79;44.45
22688;BME280;11511;51.514;7.080;2023-08-24T09:57:54;100841.59;;;37.23;44.40
22688;BME280;11511;51.514;7.080;2023-08-24T10:00:26;100838.06;;;38.02;44.86
22688;BME280;11511;51.514;7.080;2023-08-24T10:02:58;100844.22;;;38.64;43.10
22688;BME280;11511;51.514;7.080;2023-08-24T10:05:32;100843.44;;;36.79;40.69
22688;BME280;11511;51.514;7.080;2023-08-24T10:08:06;100841.31;;;35.85;43.67
22688;BME280;11511;51.514;7.080;2023-08-24T10:10:41;100848.97;;;35.24;44.24
22688;BME280;11511;51.514;7.080;2023-08-24T10:13:36;100862.03;;;36.71;44.87
22688;BME280;11511;51.514;7.080;2023-08-24T10:16:12;100860.56;;;36.68;43.83
22688;BME280;11511;51.514;7.080;2023-08-24T10:18:44;100868.19;;;37.29;43.47
22688;BME280;11511;51.514;7.080;2023-08-24T10:21:17;100878.06;;;37.80;41.07
22688;BME280;11511;51.514;7.080;2023-08-24T10:23:49;100869.16;;;36.85;43.74
22688;BME280;11511;51.514;7.080;2023-08-24T10:26:22;100863.63;;;37.16;43.63
22688;BME280;11511;51.514;7.080;2023-08-24T10:28:55;100875.78;;;37.52;42.64
22688;BME280;11511;51.514;7.080;2023-08-24T10:31:28;100877.38;;;38.03;43.33
22688;BME280;11511;51.514;7.080;2023-08-24T10:34:01;100872.50;;;37.43;43.63
22688;BME280;11511;51.514;7.080;2023-08-24T10:36:33;100875.13;;;36.69;44.80
22688;BME280;11511;51.514;7.080;2023-08-24T10:39:06;100886.81;;;36.57;46.04
22688;BME280;11511;51.514;7.080;2023-08-24T10:41:49;100874.72;;;36.34;45.26
22688;BME280;11511;51.514;7.080;2023-08-24T10:44:33;100865.94;;;36.56;45.26
22688;BME280;11511;51.514;7.080;2023-08-24T10:47:07;100864.88;;;36.06;46.79
22688;BME280;11511;51.514;7.080;2023-08-24T10:49:39;100860.50;;;34.67;50.85
22688;BME280;11511;51.514;7.080;2023-08-24T10:52:21;100861.38;;;35.73;46.94
22688;BME280;11511;51.514;7.080;2023-08-24T10:54:54;100865.00;;;35.34;46.64
22688;BME280;11511;51.514;7.080;2023-08-24T10:57:30;100861.59;;;35.65;48.41
22688;BME280;11511;51.514;7.080;2023-08-24T11:00:10;100849.31;;;35.93;47.42
22688;BME280;11511;51.514;7.080;2023-08-24T11:02:46;100850.88;;;34.97;48.84
22688;BME280;11511;51.514;7.080;2023-08-24T11:05:27;100848.78;;;35.32;51.19
22688;BME280;11511;51.514;7.080;2023-08-24T11:08:02;100843.84;;;35.87;49.61
22688;BME280;11511;51.514;7.080;2023-08-24T11:13:14;100845.56;;;35.68;49.73
22688;BME280;11511;51.514;7.080;2023-08-24T11:15:47;100849.41;;;35.27;50.52
22688;BME280;11511;51.514;7.080;2023-08-24T11:18:26;100833.16;;;34.80;52.56
22688;BME280;11511;51.514;7.080;2023-08-24T11:21:04;100831.44;;;34.59;53.34
22688;BME280;11511;51.514;7.080;2023-08-24T11:23:37;100827.41;;;34.42;54.27
22688;BME280;11511;51.514;7.080;2023-08-24T11:26:09;100831.34;;;33.85;55.28
22688;BME280;11511;51.514;7.080;2023-08-24T11:28:41;100827.69;;;33.43;57.91
22688;BME280;11511;51.514;7.080;2023-08-24T11:31:13;100790.88;;;33.05;58.97
22688;BME280;11511;51.514;7.080;2023-08-24T11:33:45;100789.66;;;32.86;61.86
22688;BME280;11511;51.514;7.080;2023-08-24T11:36:17;100780.63;;;32.85;64.49
22688;BME280;11511;51.514;7.080;2023-08-24T11:38:52;100777.97;;;32.49;67.67
22688;BME280;11511;51.514;7.080;2023-08-24T11:41:25;100784.06;;;32.15;71.47
22688;BME280;11511;51.514;7.080;2023-08-24T11:43:59;100780.84;;;31.61;73.09
22688;BME280;11511;51.514;7.080;2023-08-24T11:46:32;100778.72;;;31.71;74.01
22688;BME280;11511;51.514;7.080;2023-08-24T11:49:07;100776.97;;;31.26;77.12
22688;BME280;11511;51.514;7.080;2023-08-24T11:51:40;100788.00;;;30.72;79.33
22688;BME280;11511;51.514;7.080;2023-08-24T11:54:12;100797.19;;;30.17;80.99
22688;BME280;11511;51.514;7.080;2023-08-24T11:56:44;100797.09;;;29.94;81.31
22688;BME280;11511;51.514;7.080;2023-08-24T11:59:18;100814.16;;;29.80;85.86
22688;BME280;11511;51.514;7.080;2023-08-24T12:01:51;100812.84;;;29.60;87.52
22688;BME280;11511;51.514;7.080;2023-08-24T12:04:24;100812.34;;;29.64;90.35
22688;BME280;11511;51.514;7.080;2023-08-24T12:06:56;100814.91;;;29.97;91.26
22688;BME280;11511;51.514;7.080;2023-08-24T12:09:29;100813.25;;;29.88;90.87
22688;BME280;11511;51.514;7.080;2023-08-24T12:12:01;100803.66;;;29.69;94.82
22688;BME280;11511;51.514;7.080;2023-08-24T12:14:42;100799.31;;;29.91;95.49
22688;BME280;11511;51.514;7.080;2023-08-24T12:17:16;100800.78;;;30.10;94.04
22688;BME280;11511;51.514;7.080;2023-08-24T12:19:59;100797.03;;;29.80;93.10
22688;BME280;11511;51.514;7.080;2023-08-24T12:22:32;100800.81;;;29.54;94.04
22688;BME280;11511;51.514;7.080;2023-08-24T12:25:04;100792.97;;;29.68;95.08
22688;BME280;11511;51.514;7.080;2023-08-24T12:27:37;100786.09;;;29.49;95.75
22688;BME280;11511;51.514;7.080;2023-08-24T12:30:10;100777.09;;;29.48;97.56
22688;BME280;11511;51.514;7.080;2023-08-24T12:32:47;100768.72;;;29.66;97.04
22688;BME280;11511;51.514;7.080;2023-08-24T12:35:19;100752.44;;;29.58;98.84
22688;BME280;11511;51.514;7.080;2023-08-24T12:37:51;100764.22;;;29.50;99.00
22688;BME280;11511;51.514;7.080;2023-08-24T12:40:23;100745.06;;;29.27;99.46
22688;BME280;11511;51.514;7.080;2023-08-24T12:42:57;100741.47;;;29.35;99.75
22688;BME280;11511;51.514;7.080;2023-08-24T12:45:29;100712.63;;;28.87;100.00
22688;BME280;11511;51.514;7.080;2023-08-24T12:48:01;100711.91;;;28.77;100.00
22688;BME280;11511;51.514;7.080;2023-08-24T12:50:34;100697.88;;;28.65;100.00
22688;BME280;11511;51.514;7.080;2023-08-24T12:53:06;100703.13;;;28.34;100.00
22688;BME280;11511;51.514;7.080;2023-08-24T12:55:39;100701.56;;;28.15;100.00
22688;BME280;11511;51.514;7.080;2023-08-24T12:58:14;100695.44;;;27.47;100.00
22688;BME280;11511;51.514;7.080;2023-08-24T13:00:46;100686.94;;;27.00;100.00
22688;BME280;11511;51.514;7.080;2023-08-24T13:03:18;100685.19;;;26.47;100.00
22688;BME280;11511;51.514;7.080;2023-08-24T13:05:50;100674.09;;;26.58;100.00
22688;BME280;11511;51.514;7.080;2023-08-24T13:08:22;100648.75;;;26.33;100.00
22688;BME280;11511;51.514;7.080;2023-08-24T13:10:54;100637.88;;;26.43;100.00
22688;BME280;11511;51.514;7.080;2023-08-24T13:13:26;100634.63;;;26.39;100.00
22688;BME280;11511;51.514;7.080;2023-08-24T13:15:58;100644.53;;;26.30;100.00
22688;BME280;11511;51.514;7.080;2023-08-24T13:18:30;100632.84;;;26.48;100.00
22688;BME280;11511;51.514;7.080;2023-08-24T13:21:02;100649.09;;;26.56;100.00
22688;BME280;11511;51.514;7.080;2023-08-24T13:23:34;100655.19;;;26.58;100.00
22688;BME280;11511;51.514;7.080;2023-08-24T13:26:17;100651.47;;;26.77;100.00
22688;BME280;11511;51.514;7.080;2023-08-24T13:28:50;100649.84;;;26.92;100.00
22688;BME280;11511;51.514;7.080;2023-08-24T13:31:23;100646.91;;;27.03;100.00
22688;BME280;11511;51.514;7.080;2023-08-24T13:33:55;100650.69;;;27.18;100.00
22688;BME280;11511;51.514;7.080;2023-08-24T13:36:27;100654.19;;;27.53;100.00
22688;BME280;11511;51.514;7.080;2023-08-24T13:38:59;100657.28;;;27.66;100.00
22688;BME280;11511;51.514;7.080;2023-08-24T13:41:31;100660.19;;;27.73;100.00
22688;BME280;11511;51.514;7.080;2023-08-24T13:44:03;100665.88;;;27.53;100.00
22688;BME280;11511;51.514;7.080;2023-08-24T13:46:35;100673.06;;;27.79;100.00
22688;BME280;11511;51.514;7.080;2023-08-24T13:49:07;100670.22;;;27.88;100.00
22688;BME280;11511;51.514;7.080;2023-08-24T13:51:40;100664.56;;;27.66;100.00
22688;BME280;11511;51.514;7.080;2023-08-24T13:54:16;100673.25;;;27.77;100.00
22688;BME280;11511;51.514;7.080;2023-08-24T13:56:48;100695.34;;;27.64;100.00
22688;BME280;11511;51.514;7.080;2023-08-24T13:59:23;100690.66;;;27.33;100.00
22688;BME280;11511;51.514;7.080;2023-08-24T14:01:55;100665.50;;;27.48;100.00
22688;BME280;11511;51.514;7.080;2023-08-24T14:04:27;100666.00;;;27.10;100.00